createdAt,value
2023-04-15T00:00:40.916Z,48.13
2023-04-15T00:03:08.909Z,45.05
2023-04-15T00:05:40.051Z,47.28
2023-04-15T00:08:07.847Z,37.63
2023-04-15T00:10:35.612Z,38.80
2023-04-15T00:13:07.808Z,38.40
2023-04-15T00:15:36.790Z,41.58
2023-04-15T00:18:05.823Z,41.05
2023-04-15T00:20:33.797Z,44.40
2023-04-15T00:23:02.848Z,41.10
2023-04-15T00:25:30.434Z,41.30
2023-04-15T00:27:58.168Z,45.75
2023-04-15T00:30:26.393Z,50.85
2023-04-15T00:32:54.448Z,44.88
2023-04-15T00:35:23.409Z,44.33
2023-04-15T00:37:51.682Z,44.13
2023-04-15T00:40:21.675Z,50.05
2023-04-15T00:42:50.101Z,44.20
2023-04-15T00:45:17.841Z,45.47
2023-04-15T00:47:45.822Z,50.83
2023-04-15T00:50:14.172Z,45.85
2023-04-15T00:52:43.325Z,43.55
2023-04-15T00:55:11.093Z,48.67
2023-04-15T00:57:59.164Z,46.53
2023-04-15T01:00:27.491Z,50.92
2023-04-15T01:02:56.030Z,46.95
2023-04-15T01:05:24.059Z,50.20
2023-04-15T01:07:53.297Z,51.03
2023-04-15T01:10:20.900Z,51.58
2023-04-15T01:12:49.781Z,46.15
2023-04-15T01:15:17.887Z,50.08
2023-04-15T01:17:45.774Z,48.10
2023-04-15T01:20:14.789Z,43.65
2023-04-15T01:22:43.318Z,43.78
2023-04-15T01:25:17.641Z,50.50
2023-04-15T01:27:47.022Z,56.25
2023-04-15T01:30:14.608Z,48.78
2023-04-15T01:32:43.177Z,54.53
2023-04-15T01:35:11.295Z,49.15
2023-04-15T01:37:38.890Z,52.00
2023-04-15T01:40:08.316Z,49.70
2023-04-15T01:42:36.930Z,45.55
2023-04-15T01:45:08.479Z,52.42
2023-04-15T01:47:37.297Z,54.97
2023-04-15T01:50:05.837Z,56.42
2023-04-15T01:52:33.857Z,48.45
2023-04-15T01:55:01.722Z,41.70
2023-04-15T01:57:30.002Z,49.42
2023-04-15T01:59:57.532Z,44.38
2023-04-15T02:02:26.966Z,45.83
2023-04-15T02:04:54.866Z,50.70
2023-04-15T02:07:22.554Z,48.97
2023-04-15T02:09:50.230Z,48.35
2023-04-15T02:12:18.198Z,56.40
2023-04-15T02:14:45.872Z,54.08
2023-04-15T02:17:20.219Z,54.22
2023-04-15T02:19:51.432Z,56.83
2023-04-15T02:22:19.883Z,52.22
2023-04-15T02:24:47.424Z,71.93
2023-04-15T02:27:18.768Z,62.15
2023-04-15T02:29:46.930Z,56.92
2023-04-15T02:32:14.517Z,55.45
2023-04-15T02:34:43.715Z,67.90
2023-04-15T02:37:13.770Z,55.05
2023-04-15T02:39:41.465Z,69.20
2023-04-15T02:42:10.837Z,64.35
2023-04-15T02:44:38.756Z,57.72
2023-04-15T02:47:06.612Z,57.58
2023-04-15T02:49:35.392Z,58.00
2023-04-15T02:52:03.277Z,77.13
2023-04-15T02:54:32.556Z,55.53
2023-04-15T02:57:01.034Z,57.85
2023-04-15T02:59:29.526Z,65.50
2023-04-15T03:01:57.270Z,71.30
2023-04-15T03:04:24.896Z,70.47
2023-04-15T03:06:52.868Z,62.10
2023-04-15T03:09:20.787Z,68.75
2023-04-15T03:11:49.840Z,75.50
2023-04-15T03:14:17.781Z,67.38
2023-04-15T03:16:46.605Z,77.43
2023-04-15T03:19:14.483Z,68.38
2023-04-15T03:21:42.302Z,77.35
2023-04-15T03:24:09.981Z,83.47
2023-04-15T03:26:38.668Z,72.88
2023-04-15T03:29:07.785Z,75.63
2023-04-15T03:31:36.977Z,83.35
2023-04-15T03:34:05.791Z,68.90
2023-04-15T03:36:48.023Z,77.30
2023-04-15T03:39:15.695Z,71.78
2023-04-15T03:41:43.757Z,78.88
2023-04-15T03:44:13.032Z,70.05
2023-04-15T03:46:40.823Z,58.00
2023-04-15T03:49:08.395Z,69.50
2023-04-15T03:51:39.172Z,59.78
2023-04-15T03:54:06.978Z,55.38
2023-04-15T03:56:34.616Z,60.45
2023-04-15T03:59:02.646Z,74.63
2023-04-15T04:01:32.041Z,58.30
2023-04-15T04:03:59.939Z,58.83
2023-04-15T04:06:28.758Z,56.40
2023-04-15T04:08:56.743Z,51.75
2023-04-15T04:11:24.691Z,56.47
2023-04-15T04:13:56.272Z,48.38
2023-04-15T04:16:26.987Z,46.40
2023-04-15T04:18:56.220Z,47.00
2023-04-15T04:21:23.797Z,47.97
2023-04-15T04:23:53.464Z,46.65
2023-04-15T04:26:21.676Z,53.47
2023-04-15T04:28:49.249Z,49.50
2023-04-15T04:31:17.075Z,48.45
2023-04-15T04:33:45.306Z,55.17
2023-04-15T04:36:14.422Z,55.17
2023-04-15T04:38:42.078Z,49.55
2023-04-15T04:41:10.002Z,65.05
2023-04-15T04:43:37.684Z,63.58
2023-04-15T04:46:05.755Z,58.72
2023-04-15T04:48:33.495Z,65.38
2023-04-15T04:51:01.347Z,63.85
2023-04-15T04:53:35.352Z,62.85
2023-04-15T04:56:03.287Z,63.95
2023-04-15T04:58:31.000Z,63.40
2023-04-15T05:01:00.401Z,75.32
2023-04-15T05:03:29.009Z,77.47
2023-04-15T05:05:56.962Z,67.47
2023-04-15T05:08:29.747Z,72.32
2023-04-15T05:10:59.111Z,67.13
2023-04-15T05:13:26.707Z,78.57
2023-04-15T05:15:54.577Z,74.70
2023-04-15T05:18:23.783Z,68.18
2023-04-15T05:20:51.525Z,64.72
2023-04-15T05:23:19.658Z,71.25
2023-04-15T05:25:50.300Z,74.28
2023-04-15T05:28:19.469Z,64.20
2023-04-15T05:30:47.233Z,68.20
2023-04-15T05:33:15.312Z,65.85
2023-04-15T05:35:42.904Z,69.93
2023-04-15T05:38:10.693Z,66.95
2023-04-15T05:40:38.297Z,74.88
2023-04-15T05:43:08.886Z,66.47
2023-04-15T05:45:44.166Z,60.28
2023-04-15T05:48:11.971Z,64.10
2023-04-15T05:50:41.438Z,59.35
2023-04-15T05:53:09.079Z,60.90
2023-04-15T05:55:37.272Z,69.78
2023-04-15T05:58:05.036Z,66.82
2023-04-15T06:00:32.859Z,59.90
2023-04-15T06:03:02.986Z,65.68
2023-04-15T06:05:31.134Z,73.13
2023-04-15T06:07:58.815Z,71.53
2023-04-15T06:10:26.648Z,70.65
2023-04-15T06:12:54.537Z,73.72
2023-04-15T06:15:22.457Z,75.70
2023-04-15T06:17:50.241Z,70.60
2023-04-15T06:20:19.883Z,67.47
2023-04-15T06:22:47.927Z,63.30
2023-04-15T06:25:15.667Z,77.65
2023-04-15T06:27:43.674Z,63.45
2023-04-15T06:30:11.884Z,64.53
2023-04-15T06:32:40.343Z,65.95
2023-04-15T06:35:08.858Z,61.42
2023-04-15T06:37:37.895Z,60.33
2023-04-15T06:40:06.604Z,62.72
2023-04-15T06:42:35.326Z,66.05
2023-04-15T06:45:02.996Z,58.20
2023-04-15T06:47:30.740Z,60.65
2023-04-15T06:49:58.490Z,63.03
2023-04-15T06:52:30.591Z,52.92
2023-04-15T06:55:01.092Z,51.55
2023-04-15T06:57:29.221Z,52.17
2023-04-15T06:59:59.033Z,53.30
2023-04-15T07:02:29.667Z,55.53
2023-04-15T07:04:57.445Z,51.72
2023-04-15T07:07:25.332Z,49.13
2023-04-15T07:09:54.154Z,55.13
2023-04-15T07:12:23.412Z,49.65
2023-04-15T07:14:51.162Z,51.20
2023-04-15T07:17:18.724Z,46.08
2023-04-15T07:19:46.972Z,49.03
2023-04-15T07:22:15.045Z,45.22
2023-04-15T07:24:42.629Z,50.42
2023-04-15T07:27:10.359Z,45.97
2023-04-15T07:29:39.915Z,49.47
2023-04-15T07:32:07.629Z,46.83
2023-04-15T07:34:36.222Z,46.00
2023-04-15T07:37:04.755Z,44.03
2023-04-15T07:39:32.585Z,44.70
2023-04-15T07:42:03.054Z,46.60
2023-04-15T07:44:32.344Z,43.60
2023-04-15T07:47:02.772Z,49.63
2023-04-15T07:49:31.930Z,42.80
2023-04-15T07:51:59.940Z,44.42
2023-04-15T07:54:27.685Z,47.13
2023-04-15T07:56:55.304Z,47.72
2023-04-15T07:59:26.814Z,39.10
2023-04-15T08:01:54.558Z,45.33
2023-04-15T08:04:23.821Z,44.58
2023-04-15T08:06:56.111Z,44.75
2023-04-15T08:09:23.997Z,41.03
2023-04-15T08:11:51.874Z,46.20
2023-04-15T08:14:20.265Z,47.00
2023-04-15T08:16:47.910Z,36.42
2023-04-15T08:19:15.621Z,44.67
2023-04-15T08:21:45.188Z,43.03
2023-04-15T08:24:12.783Z,48.22
2023-04-15T08:26:43.799Z,40.90
2023-04-15T08:29:13.708Z,40.95
2023-04-15T08:31:41.555Z,43.85
2023-04-15T08:34:15.811Z,35.83
2023-04-15T08:36:45.251Z,36.97
2023-04-15T08:39:14.765Z,41.72
2023-04-15T08:41:46.927Z,39.55
2023-04-15T08:44:15.957Z,47.50
2023-04-15T08:46:45.738Z,41.75
2023-04-15T08:49:13.908Z,47.95
2023-04-15T08:51:45.925Z,39.20
2023-04-15T08:54:16.154Z,36.15
2023-04-15T08:56:44.402Z,39.80
2023-04-15T08:59:12.534Z,33.78
2023-04-15T09:01:40.761Z,39.47
2023-04-15T09:04:08.896Z,43.55
2023-04-15T09:06:37.284Z,39.17
2023-04-15T09:09:06.663Z,44.78
2023-04-15T09:11:35.337Z,53.95
2023-04-15T09:14:02.978Z,45.83
2023-04-15T09:16:31.257Z,43.53
2023-04-15T09:18:58.835Z,41.45
2023-04-15T09:21:26.825Z,37.30
2023-04-15T09:23:56.862Z,45.55
2023-04-15T09:26:33.758Z,48.85
2023-04-15T09:29:08.237Z,42.90
2023-04-15T09:31:38.924Z,45.47
2023-04-15T09:34:07.500Z,41.20
2023-04-15T09:36:56.320Z,40.78
2023-04-15T09:39:24.267Z,35.47
2023-04-15T09:42:08.889Z,34.38
2023-04-15T09:44:37.567Z,41.72
2023-04-15T09:47:08.114Z,40.47
2023-04-15T09:49:36.147Z,43.45
2023-04-15T09:52:05.816Z,36.22
2023-04-15T09:57:08.522Z,42.33
2023-04-15T09:59:36.285Z,42.83
2023-04-15T10:02:05.804Z,31.60
2023-04-15T10:04:36.285Z,44.60
2023-04-15T10:07:09.578Z,36.72
2023-04-15T10:09:39.074Z,37.45
2023-04-15T10:12:11.832Z,43.92
2023-04-15T10:14:41.265Z,35.47
2023-04-15T10:17:11.975Z,35.38
2023-04-15T10:22:08.492Z,51.08
2023-04-15T10:24:36.775Z,34.70
2023-04-15T10:27:05.997Z,45.85
2023-04-15T10:29:35.147Z,43.72
2023-04-15T10:32:03.735Z,41.90
2023-04-15T10:34:32.721Z,37.08
2023-04-15T10:37:02.673Z,32.90
2023-04-15T10:39:43.929Z,36.58
2023-04-15T10:42:13.232Z,39.15
2023-04-15T10:44:48.758Z,42.67
2023-04-15T10:47:18.122Z,40.03
2023-04-15T10:49:50.467Z,43.70
2023-04-15T10:52:23.051Z,34.67
2023-04-15T10:54:50.939Z,36.40
2023-04-15T10:57:23.478Z,35.53
2023-04-15T11:00:10.198Z,37.30
2023-04-15T11:02:42.823Z,40.60
2023-04-15T11:05:12.151Z,58.25
2023-04-15T11:07:47.025Z,37.35
2023-04-15T11:10:54.408Z,39.00
2023-04-15T11:13:28.584Z,35.95
2023-04-15T11:15:59.739Z,52.65
2023-04-15T11:18:32.717Z,37.17
2023-04-15T11:21:06.155Z,32.83
2023-04-15T11:23:38.780Z,29.52
2023-04-15T11:26:08.034Z,33.17
2023-04-15T11:28:37.449Z,35.90
2023-04-15T11:31:10.274Z,34.60
2023-04-15T11:33:46.040Z,40.95
2023-04-15T11:36:13.851Z,32.17
2023-04-15T11:38:46.912Z,34.53
2023-04-15T11:41:14.524Z,33.20
2023-04-15T11:43:42.653Z,26.08
2023-04-15T11:46:12.208Z,28.02
2023-04-15T11:48:44.470Z,23.88
2023-04-15T11:51:13.397Z,23.95
2023-04-15T11:53:42.933Z,23.77
2023-04-15T11:56:11.892Z,23.70
2023-04-15T11:58:39.506Z,25.50
2023-04-15T12:01:08.071Z,22.55
2023-04-15T12:03:41.963Z,25.20
2023-04-15T12:06:12.624Z,18.73
2023-04-15T12:09:08.463Z,22.73
2023-04-15T12:11:39.053Z,24.38
2023-04-15T12:14:09.800Z,18.73
2023-04-15T12:16:49.410Z,32.13
2023-04-15T12:19:24.395Z,20.30
2023-04-15T12:21:53.858Z,21.25
2023-04-15T12:24:22.286Z,25.67
2023-04-15T12:26:51.484Z,19.50
2023-04-15T12:29:20.251Z,25.83
2023-04-15T12:31:49.890Z,24.38
2023-04-15T12:34:25.530Z,22.55
2023-04-15T12:36:53.345Z,22.60
2023-04-15T12:39:22.866Z,21.02
2023-04-15T12:41:50.493Z,23.80
2023-04-15T12:44:18.225Z,24.17
2023-04-15T12:46:46.330Z,23.17
2023-04-15T12:49:14.109Z,20.42
2023-04-15T12:51:43.282Z,22.02
2023-04-15T12:54:11.022Z,21.80
2023-04-15T12:56:38.850Z,23.98
2023-04-15T12:59:06.412Z,25.35
2023-04-15T13:01:34.203Z,22.90
2023-04-15T13:04:02.174Z,20.65
2023-04-15T13:06:30.606Z,20.77
2023-04-15T13:08:59.733Z,21.20
2023-04-15T13:11:28.307Z,22.92
2023-04-15T13:13:55.888Z,23.85
2023-04-15T13:16:23.956Z,27.23
2023-04-15T13:18:51.957Z,24.70
2023-04-15T13:21:20.739Z,25.55
2023-04-15T13:23:49.371Z,22.15
2023-04-15T13:26:19.100Z,28.20
2023-04-15T13:28:47.561Z,26.55
2023-04-15T13:31:15.164Z,27.27
2023-04-15T13:33:44.428Z,28.38
2023-04-15T13:36:12.051Z,27.15
2023-04-15T13:38:39.912Z,25.52
2023-04-15T13:41:07.577Z,27.17
2023-04-15T13:43:36.601Z,26.30
2023-04-15T13:46:04.734Z,24.42
2023-04-15T13:48:32.669Z,24.05
2023-04-15T13:51:00.251Z,31.05
2023-04-15T13:53:34.891Z,42.83
2023-04-15T13:56:07.100Z,28.42
2023-04-15T13:58:36.547Z,29.33
2023-04-15T14:01:06.153Z,29.88
2023-04-15T14:03:35.221Z,24.52
2023-04-15T14:06:03.386Z,32.25
2023-04-15T14:08:31.393Z,31.10
2023-04-15T14:10:59.350Z,29.45
2023-04-15T14:13:27.063Z,26.23
2023-04-15T14:15:57.086Z,29.70
2023-04-15T14:18:24.982Z,27.35
2023-04-15T14:20:52.677Z,26.33
2023-04-15T14:23:20.748Z,28.77
2023-04-15T14:25:48.664Z,34.35
2023-04-15T14:28:16.430Z,24.98
2023-04-15T14:30:44.068Z,27.52
2023-04-15T14:33:13.688Z,24.80
2023-04-15T14:35:41.308Z,27.92
2023-04-15T14:38:09.085Z,32.60
2023-04-15T14:40:36.952Z,28.58
2023-04-15T14:43:04.619Z,26.83
2023-04-15T14:45:32.792Z,35.35
2023-04-15T14:48:00.473Z,30.10
2023-04-15T14:50:29.681Z,34.10
2023-04-15T14:52:57.427Z,39.08
2023-04-15T14:55:25.537Z,36.97
2023-04-15T14:57:53.093Z,29.88
2023-04-15T15:00:20.759Z,28.63
2023-04-15T15:02:49.452Z,27.58
2023-04-15T15:05:17.477Z,31.63
2023-04-15T15:07:46.659Z,27.10
2023-04-15T15:10:14.481Z,26.17
2023-04-15T15:12:42.706Z,33.65
2023-04-15T15:15:24.984Z,24.95
2023-04-15T15:17:56.588Z,28.58
2023-04-15T15:20:24.982Z,32.17
2023-04-15T15:22:54.357Z,31.77
2023-04-15T15:25:22.382Z,41.65
2023-04-15T15:27:50.649Z,29.60
2023-04-15T15:30:18.299Z,32.00
2023-04-15T15:32:47.294Z,27.10
2023-04-15T15:35:15.270Z,29.52
2023-04-15T15:37:43.052Z,29.65
2023-04-15T15:40:13.030Z,30.42
2023-04-15T15:42:40.840Z,26.50
2023-04-15T15:45:08.933Z,33.10
2023-04-15T15:47:36.901Z,31.05
2023-04-15T15:50:06.258Z,41.03
2023-04-15T15:52:34.172Z,29.25
2023-04-15T15:55:01.892Z,33.00
2023-04-15T15:57:34.480Z,33.05
2023-04-15T16:02:59.912Z,40.50
2023-04-15T16:05:20.492Z,35.22
2023-04-15T16:07:48.435Z,39.28
2023-04-15T16:10:16.058Z,37.47
2023-04-15T16:12:45.547Z,35.28
2023-04-15T16:15:13.558Z,37.75
2023-04-15T16:17:41.573Z,39.28
2023-04-15T16:20:10.072Z,39.05
2023-04-15T16:22:37.699Z,36.83
2023-04-15T16:25:07.909Z,36.50
2023-04-15T16:27:46.752Z,35.45
2023-04-15T16:30:26.698Z,37.85
2023-04-15T16:32:54.781Z,42.35
2023-04-15T16:35:22.395Z,40.92
2023-04-15T16:37:49.946Z,40.17
2023-04-15T16:40:17.862Z,40.72
2023-04-15T16:42:45.572Z,37.97
2023-04-15T16:45:13.149Z,34.33
2023-04-15T16:47:47.338Z,35.85
2023-04-15T16:50:15.139Z,45.90
2023-04-15T16:52:43.173Z,44.58
2023-04-15T16:55:10.776Z,42.97
2023-04-15T16:57:53.186Z,39.45
2023-04-15T17:00:26.499Z,40.88
2023-04-15T17:02:56.529Z,42.55
2023-04-15T17:05:27.080Z,47.35
2023-04-15T17:07:54.964Z,39.17
2023-04-15T17:10:23.152Z,45.05
2023-04-15T17:12:51.354Z,42.22
2023-04-15T17:15:19.369Z,45.53
2023-04-15T17:17:46.994Z,49.88
2023-04-15T17:20:16.204Z,52.90
2023-04-15T17:22:43.934Z,53.08
2023-04-15T17:25:11.540Z,48.40
2023-04-15T17:27:39.395Z,53.50
2023-04-15T17:30:08.440Z,49.47
2023-04-15T17:32:40.002Z,51.40
2023-04-15T17:35:08.692Z,55.97
2023-04-15T17:37:38.944Z,53.90
2023-04-15T17:40:08.756Z,69.47
2023-04-15T17:42:36.888Z,55.55
2023-04-15T17:45:05.480Z,63.28
2023-04-15T17:47:36.320Z,57.60
2023-04-15T17:50:05.045Z,63.00
2023-04-15T17:52:33.196Z,56.28
2023-04-15T17:55:02.368Z,61.67
2023-04-15T17:57:30.148Z,59.15
2023-04-15T17:59:57.816Z,65.32
2023-04-15T18:02:25.837Z,71.47
2023-04-15T18:04:53.817Z,63.88
2023-04-15T18:07:21.779Z,66.53
2023-04-15T18:09:49.533Z,72.35
2023-04-15T18:12:18.735Z,79.68
2023-04-15T18:14:46.638Z,77.75
2023-04-15T18:17:14.548Z,75.32
2023-04-15T18:19:42.516Z,77.80
2023-04-15T18:22:10.167Z,68.43
2023-04-15T18:24:38.020Z,76.07
2023-04-15T18:27:05.808Z,73.13
2023-04-15T18:29:35.241Z,85.03
2023-04-15T18:32:03.215Z,73.03
2023-04-15T18:34:31.228Z,74.68
2023-04-15T18:36:59.115Z,77.40
2023-04-15T18:39:27.220Z,81.72
2023-04-15T18:41:55.857Z,88.97
2023-04-15T18:44:23.444Z,83.15
2023-04-15T18:46:52.612Z,91.65
2023-04-15T18:49:20.254Z,80.65
2023-04-15T18:51:50.267Z,77.78
2023-04-15T18:54:17.985Z,95.10
2023-04-15T18:56:46.186Z,93.13
2023-04-15T18:59:29.782Z,85.22
2023-04-15T19:02:00.464Z,99.82
2023-04-15T19:04:28.334Z,78.60
2023-04-15T19:06:56.311Z,98.00
2023-04-15T19:09:24.728Z,92.85
2023-04-15T19:11:52.527Z,96.90
2023-04-15T19:14:20.070Z,100.15
2023-04-15T19:16:48.111Z,109.15
2023-04-15T19:19:17.105Z,110.57
2023-04-15T19:21:44.866Z,92.95
2023-04-15T19:24:14.092Z,113.10
2023-04-15T19:26:41.838Z,101.05
2023-04-15T19:29:09.544Z,111.43
2023-04-15T19:31:37.468Z,121.80
2023-04-15T19:34:05.166Z,107.78
2023-04-15T19:36:34.256Z,111.45
2023-04-15T19:39:02.733Z,108.45
2023-04-15T19:41:31.822Z,118.65
2023-04-15T19:43:59.886Z,109.18
2023-04-15T19:46:29.226Z,111.95
2023-04-15T19:49:00.010Z,112.90
2023-04-15T19:51:28.330Z,113.63
2023-04-15T19:53:57.923Z,111.18
2023-04-15T19:56:25.490Z,95.90
2023-04-15T19:58:53.288Z,90.35
2023-04-15T20:01:22.001Z,99.13
2023-04-15T20:03:49.864Z,101.15
2023-04-15T20:06:17.877Z,99.80
2023-04-15T20:08:46.333Z,94.72
2023-04-15T20:11:15.402Z,81.63
2023-04-15T20:13:43.204Z,89.70
2023-04-15T20:16:11.363Z,110.35
2023-04-15T20:18:39.831Z,102.82
2023-04-15T20:21:07.545Z,98.53
2023-04-15T20:23:35.631Z,101.63
2023-04-15T20:26:03.197Z,92.30
2023-04-15T20:28:32.613Z,96.97
2023-04-15T20:31:01.236Z,105.43
2023-04-15T20:33:30.308Z,78.47
2023-04-15T20:35:58.048Z,78.05
2023-04-15T20:38:25.947Z,78.50
2023-04-15T20:40:53.487Z,75.28
2023-04-15T20:43:22.281Z,77.97
2023-04-15T20:45:51.602Z,77.15
2023-04-15T20:48:19.451Z,79.15
2023-04-15T20:50:47.105Z,73.75
2023-04-15T20:53:14.809Z,71.00
2023-04-15T20:55:42.652Z,70.10
2023-04-15T20:58:10.789Z,77.47
2023-04-15T21:00:38.568Z,68.90
2023-04-15T21:03:07.804Z,71.82
2023-04-15T21:05:35.942Z,90.35
2023-04-15T21:08:04.095Z,73.13
2023-04-15T21:10:33.633Z,74.03
2023-04-15T21:13:01.439Z,69.53
2023-04-15T21:15:29.232Z,75.28
2023-04-15T21:17:57.114Z,88.80
2023-04-15T21:20:26.344Z,83.72
2023-04-15T21:22:54.061Z,100.50
2023-04-15T21:25:21.811Z,105.80
2023-04-15T21:27:49.824Z,102.78
2023-04-15T21:30:17.622Z,110.95
2023-04-15T21:32:45.747Z,99.90
2023-04-15T21:35:13.604Z,105.13
2023-04-15T21:37:42.768Z,101.93
2023-04-15T21:40:10.686Z,108.78
2023-04-15T21:42:39.257Z,104.68
2023-04-15T21:45:07.755Z,102.88
2023-04-15T21:48:04.594Z,108.90
2023-04-15T21:50:23.183Z,111.00
2023-04-15T21:52:52.329Z,108.55
2023-04-15T21:55:21.257Z,104.47
2023-04-15T21:57:49.200Z,98.07
2023-04-15T22:00:17.101Z,96.53
2023-04-15T22:02:46.115Z,107.85
2023-04-15T22:05:14.050Z,117.60
2023-04-15T22:07:41.913Z,128.60
2023-04-15T22:10:11.353Z,110.53
2023-04-15T22:12:40.706Z,112.45
2023-04-15T22:15:09.076Z,108.65
2023-04-15T22:17:37.271Z,120.93
2023-04-15T22:20:06.098Z,112.30
2023-04-15T22:22:43.971Z,112.10
2023-04-15T22:25:14.514Z,123.45
2023-04-15T22:27:43.329Z,115.13
2023-04-15T22:30:12.222Z,109.40
2023-04-15T22:32:40.228Z,115.95
2023-04-15T22:35:08.797Z,108.38
2023-04-15T22:37:36.490Z,102.88
2023-04-15T22:40:05.179Z,106.68
2023-04-15T22:42:34.509Z,101.00
2023-04-15T22:45:02.058Z,104.38
2023-04-15T22:47:30.210Z,98.78
2023-04-15T22:49:57.825Z,132.32
2023-04-15T22:52:30.601Z,113.03
2023-04-15T22:54:59.217Z,112.80
2023-04-15T22:57:27.782Z,116.22
2023-04-15T22:59:56.775Z,114.93
2023-04-15T23:02:25.047Z,105.50
2023-04-15T23:04:53.149Z,110.30
2023-04-15T23:07:20.872Z,113.03
2023-04-15T23:09:48.707Z,104.18
2023-04-15T23:12:16.427Z,106.15
2023-04-15T23:14:44.022Z,115.75
2023-04-15T23:17:13.494Z,116.25
2023-04-15T23:19:41.018Z,113.47
2023-04-15T23:22:08.703Z,113.35
2023-04-15T23:24:37.181Z,104.93
2023-04-15T23:27:04.702Z,112.63
2023-04-15T23:29:32.504Z,104.05
2023-04-15T23:32:00.617Z,111.82
2023-04-15T23:34:29.773Z,101.00
2023-04-15T23:36:57.305Z,96.53
2023-04-15T23:39:25.190Z,101.80
2023-04-15T23:41:53.227Z,106.47
2023-04-15T23:44:21.112Z,109.85
2023-04-15T23:46:49.299Z,99.30
2023-04-15T23:49:18.947Z,104.65
2023-04-15T23:51:49.372Z,95.05
2023-04-15T23:54:17.109Z,102.13
2023-04-15T23:56:44.678Z,91.13
2023-04-15T23:59:12.834Z,95.20
